createdAt,value
2019-01-10T00:02:22.746Z,98157.31
2019-01-10T00:04:54.766Z,98165.11
2019-01-10T00:07:26.722Z,98165.48
2019-01-10T00:09:58.749Z,98168.05
2019-01-10T00:12:39.221Z,98172.78
2019-01-10T00:15:07.974Z,98182.64
2019-01-10T00:17:39.947Z,98178.28
2019-01-10T00:20:12.080Z,98179.37
2019-01-10T00:22:44.062Z,98177.91
2019-01-10T00:25:16.057Z,98176.64
2019-01-10T00:27:48.037Z,98182.64
2019-01-10T00:30:20.276Z,98182.94
2019-01-10T00:32:52.313Z,98184.20
2019-01-10T00:35:24.293Z,98192.55
2019-01-10T00:37:56.245Z,98192.85
2019-01-10T00:40:28.249Z,98186.42
2019-01-10T00:43:00.224Z,98184.80
2019-01-10T00:45:32.198Z,98186.34
2019-01-10T00:48:04.191Z,98190.88
2019-01-10T00:50:36.183Z,98186.34
2019-01-10T00:53:08.152Z,98199.52
2019-01-10T00:55:40.146Z,98203.16
2019-01-10T00:58:12.129Z,98199.98
2019-01-10T01:00:44.157Z,98205.98
2019-01-10T01:03:16.123Z,98216.47
2019-01-10T01:05:48.128Z,98222.85
2019-01-10T01:08:20.110Z,98223.90
2019-01-10T01:10:52.117Z,98227.89
2019-01-10T01:13:24.096Z,98227.51
2019-01-10T01:15:56.119Z,98227.89
2019-01-10T01:18:28.083Z,98227.30
2019-01-10T01:21:00.105Z,98225.53
2019-01-10T01:23:32.079Z,98229.31
2019-01-10T01:26:04.113Z,98233.76
2019-01-10T01:28:36.196Z,98241.37
2019-01-10T01:31:08.205Z,98239.14
2019-01-10T01:33:40.231Z,98238.21
2019-01-10T01:36:12.209Z,98240.77
2019-01-10T01:38:44.196Z,98237.67
2019-01-10T01:41:16.203Z,98237.16
2019-01-10T01:43:48.164Z,98242.91
2019-01-10T01:46:20.161Z,98246.77
2019-01-10T01:48:52.309Z,98254.11
2019-01-10T01:51:24.299Z,98253.06
2019-01-10T01:53:56.308Z,98252.76
2019-01-10T01:56:28.262Z,98253.59
2019-01-10T01:59:00.261Z,98263.13
2019-01-10T02:01:32.222Z,98265.44
2019-01-10T02:04:04.223Z,98261.29
2019-01-10T02:06:36.177Z,98265.81
2019-01-10T02:09:08.184Z,98272.24
2019-01-10T02:11:40.149Z,98267.86
2019-01-10T02:14:12.189Z,98284.80
2019-01-10T02:16:44.170Z,98282.26
2019-01-10T02:19:16.176Z,98273.72
2019-01-10T02:21:48.157Z,98287.70
2019-01-10T02:24:20.134Z,98287.09
2019-01-10T02:26:52.095Z,98289.88
2019-01-10T02:29:24.110Z,98290.39
2019-01-10T02:31:56.105Z,98280.19
2019-01-10T02:34:28.106Z,98285.32
2019-01-10T02:37:00.052Z,98291.14
2019-01-10T02:39:32.046Z,98289.20
2019-01-10T02:42:04.008Z,98286.75
2019-01-10T02:44:35.996Z,98293.63
2019-01-10T02:47:07.952Z,98292.16
2019-01-10T02:49:39.919Z,98297.64
2019-01-10T02:52:11.887Z,98294.81
2019-01-10T02:54:43.867Z,98298.45
2019-01-10T02:57:15.820Z,98297.27
2019-01-10T02:59:47.830Z,98296.65
2019-01-10T03:02:19.826Z,98287.50
2019-01-10T03:04:51.797Z,98297.27
2019-01-10T03:07:23.789Z,98294.23
2019-01-10T03:09:55.742Z,98297.27
2019-01-10T03:12:27.720Z,98292.33
2019-01-10T03:14:59.814Z,98292.40
2019-01-10T03:17:31.800Z,98290.94
2019-01-10T03:20:05.011Z,98292.50
2019-01-10T03:22:37.015Z,98295.80
2019-01-10T03:25:08.994Z,98286.88
2019-01-10T03:27:40.973Z,98290.80
2019-01-10T03:30:15.006Z,98285.52
2019-01-10T03:32:47.156Z,98289.98
2019-01-10T03:35:19.079Z,98284.20
2019-01-10T03:37:51.066Z,98282.80
2019-01-10T03:40:23.016Z,98282.33
2019-01-10T03:42:55.022Z,98271.91
2019-01-10T03:45:26.967Z,98278.58
2019-01-10T03:47:58.962Z,98278.79
2019-01-10T03:50:30.910Z,98280.59
2019-01-10T03:53:02.902Z,98275.31
2019-01-10T03:55:34.880Z,98282.87
2019-01-10T03:58:06.873Z,98278.30
2019-01-10T04:00:38.832Z,98290.59
2019-01-10T04:03:10.800Z,98285.69
2019-01-10T04:05:42.761Z,98290.75
2019-01-10T04:08:14.733Z,98294.46
2019-01-10T04:10:46.689Z,98297.04
2019-01-10T04:13:18.673Z,98296.61
2019-01-10T04:15:50.640Z,98294.97
2019-01-10T04:18:22.642Z,98295.25
2019-01-10T04:20:54.585Z,98299.63
2019-01-10T04:23:26.608Z,98287.05
2019-01-10T04:25:58.565Z,98287.05
2019-01-10T04:28:30.594Z,98292.38
2019-01-10T04:31:02.501Z,98289.36
2019-01-10T04:33:34.542Z,98295.78
2019-01-10T04:36:06.519Z,98293.44
2019-01-10T04:38:38.505Z,98304.83
2019-01-10T04:41:10.483Z,98303.10
2019-01-10T04:43:42.464Z,98302.90
2019-01-10T04:46:14.467Z,98306.50
2019-01-10T04:48:46.458Z,98307.73
2019-01-10T04:51:18.455Z,98302.52
2019-01-10T04:53:50.439Z,98309.33
2019-01-10T04:56:22.454Z,98315.58
2019-01-10T04:58:54.428Z,98312.52
2019-01-10T05:01:26.406Z,98322.77
2019-01-10T05:03:58.407Z,98321.64
2019-01-10T05:06:30.383Z,98324.53
2019-01-10T05:09:03.814Z,98334.30
2019-01-10T05:11:35.792Z,98340.97
2019-01-10T05:14:16.160Z,98338.00
2019-01-10T05:16:41.639Z,98340.38
2019-01-10T05:19:13.625Z,98343.62
2019-01-10T05:21:45.598Z,98344.88
2019-01-10T05:24:17.551Z,98347.77
2019-01-10T05:26:49.558Z,98348.24
2019-01-10T05:29:21.520Z,98352.22
2019-01-10T05:31:53.539Z,98344.60
2019-01-10T05:34:25.561Z,98355.63
2019-01-10T05:36:57.580Z,98351.71
2019-01-10T05:39:30.638Z,98352.22
2019-01-10T05:42:02.739Z,98363.18
2019-01-10T05:44:34.690Z,98367.43
2019-01-10T05:47:06.745Z,98371.66
2019-01-10T05:49:38.733Z,98370.73
2019-01-10T05:52:10.798Z,98379.34
2019-01-10T05:54:42.749Z,98377.33
2019-01-10T05:57:14.751Z,98385.94
2019-01-10T05:59:46.824Z,98385.94
2019-01-10T06:02:18.828Z,98386.25
2019-01-10T06:04:50.808Z,98387.75
2019-01-10T06:07:22.770Z,98394.99
2019-01-10T06:09:54.804Z,98397.06
2019-01-10T06:12:26.872Z,98398.46
2019-01-10T06:14:58.865Z,98402.52
2019-01-10T06:17:30.821Z,98407.89
2019-01-10T06:20:03.574Z,98409.86
2019-01-10T06:22:35.524Z,98409.05
2019-01-10T06:25:07.620Z,98399.96
2019-01-10T06:27:39.623Z,98404.35
2019-01-10T06:30:14.364Z,98404.62
2019-01-10T06:32:46.380Z,98407.52
2019-01-10T06:35:18.416Z,98412.69
2019-01-10T06:37:50.415Z,98413.81
2019-01-10T06:40:22.512Z,98415.52
2019-01-10T06:42:54.496Z,98413.30
2019-01-10T06:45:26.493Z,98406.19
2019-01-10T06:47:58.495Z,98415.75
2019-01-10T06:50:30.481Z,98423.61
2019-01-10T06:53:02.468Z,98419.84
2019-01-10T06:55:34.561Z,98415.11
2019-01-10T06:58:06.656Z,98421.41
2019-01-10T07:00:38.664Z,98416.95
2019-01-10T07:03:10.660Z,98425.01
2019-01-10T07:05:42.676Z,98426.27
2019-01-10T07:08:14.625Z,98430.05
2019-01-10T07:10:46.629Z,98434.50
2019-01-10T07:13:18.565Z,98434.77
2019-01-10T07:15:50.581Z,98436.41
2019-01-10T07:18:22.561Z,98439.74
2019-01-10T07:20:54.551Z,98444.64
2019-01-10T07:23:26.505Z,98443.89
2019-01-10T07:25:58.520Z,98452.44
2019-01-10T07:28:30.488Z,98446.89
2019-01-10T07:31:26.206Z,98459.90
2019-01-10T07:33:59.012Z,98461.36
2019-01-10T07:36:32.345Z,98465.28
2019-01-10T07:39:07.322Z,98467.97
2019-01-10T07:41:40.727Z,98471.67
2019-01-10T07:44:12.692Z,98472.19
2019-01-10T07:46:47.459Z,98476.09
2019-01-10T07:49:22.582Z,98475.66
2019-01-10T07:51:54.626Z,98480.45
2019-01-10T07:54:26.599Z,98477.42
2019-01-10T07:56:58.640Z,98474.53
2019-01-10T07:59:30.597Z,98483.86
2019-01-10T08:02:02.585Z,98481.20
2019-01-10T08:04:34.730Z,98482.46
2019-01-10T08:07:06.722Z,98483.86
2019-01-10T08:09:38.695Z,98492.41
2019-01-10T08:12:10.686Z,98492.41
2019-01-10T08:14:42.659Z,98496.73
2019-01-10T08:17:16.178Z,98498.50
2019-01-10T08:19:48.379Z,98502.08
2019-01-10T08:22:27.694Z,98501.44
2019-01-10T08:24:54.336Z,98504.47
2019-01-10T08:27:26.364Z,98506.47
2019-01-10T08:29:58.360Z,98515.30
2019-01-10T08:32:30.340Z,98517.61
2019-01-10T08:35:02.543Z,98527.89
2019-01-10T08:37:34.555Z,98527.64
2019-01-10T08:40:07.649Z,98535.96
2019-01-10T08:42:39.599Z,98528.47
2019-01-10T08:45:21.148Z,98529.35
2019-01-10T08:47:45.637Z,98535.96
2019-01-10T08:50:20.205Z,98535.27
2019-01-10T08:52:52.191Z,98537.59
2019-01-10T08:55:24.512Z,98540.59
2019-01-10T08:57:56.504Z,98546.31
2019-01-10T09:00:28.539Z,98546.56
2019-01-10T09:03:00.531Z,98553.92
2019-01-10T09:05:32.520Z,98551.60
2019-01-10T09:08:04.510Z,98554.63
2019-01-10T09:10:36.497Z,98559.38
2019-01-10T09:13:08.452Z,98562.41
2019-01-10T09:15:40.485Z,98559.38
2019-01-10T09:18:12.438Z,98568.27
2019-01-10T09:20:44.457Z,98562.38
2019-01-10T09:23:16.439Z,98565.58
2019-01-10T09:25:48.437Z,98563.56
2019-01-10T09:28:20.410Z,98567.20
2019-01-10T09:30:52.411Z,98561.02
2019-01-10T09:33:24.409Z,98565.30
2019-01-10T09:35:56.421Z,98569.30
2019-01-10T09:38:28.399Z,98572.73
2019-01-10T09:41:00.385Z,98576.14
2019-01-10T09:43:32.366Z,98577.20
2019-01-10T09:46:04.339Z,98582.25
2019-01-10T09:48:36.319Z,98576.41
2019-01-10T09:51:08.322Z,98583.82
2019-01-10T09:53:40.309Z,98592.91
2019-01-10T09:56:12.306Z,98594.20
2019-01-10T09:58:44.303Z,98598.88
2019-01-10T10:01:16.292Z,98597.09
2019-01-10T10:03:48.266Z,98599.40
2019-01-10T10:06:20.264Z,98599.91
2019-01-10T10:08:52.332Z,98602.73
2019-01-10T10:11:24.349Z,98596.42
2019-01-10T10:13:56.357Z,98597.25
2019-01-10T10:16:28.352Z,98598.64
2019-01-10T10:19:00.429Z,98602.05
2019-01-10T10:21:32.329Z,98602.64
2019-01-10T10:24:04.325Z,98609.80
2019-01-10T10:26:36.295Z,98609.51
2019-01-10T10:29:08.311Z,98603.03
2019-01-10T10:31:40.298Z,98603.42
2019-01-10T10:34:12.345Z,98602.37
2019-01-10T10:36:44.315Z,98601.11
2019-01-10T10:39:16.307Z,98600.90
2019-01-10T10:41:48.317Z,98607.72
2019-01-10T10:44:20.341Z,98608.19
2019-01-10T10:46:52.346Z,98604.27
2019-01-10T10:49:24.340Z,98611.17
2019-01-10T10:51:56.316Z,98605.34
2019-01-10T10:54:28.309Z,98606.69
2019-01-10T10:57:00.290Z,98613.20
2019-01-10T10:59:32.350Z,98614.84
2019-01-10T11:02:04.312Z,98609.88
2019-01-10T11:04:36.292Z,98609.33
2019-01-10T11:07:08.275Z,98609.34
2019-01-10T11:09:40.290Z,98608.23
2019-01-10T11:12:12.291Z,98609.05
2019-01-10T11:14:48.201Z,98610.68
2019-01-10T11:17:18.174Z,98612.11
2019-01-10T11:19:51.228Z,98608.38
2019-01-10T11:22:23.250Z,98607.13
2019-01-10T11:24:55.261Z,98612.56
2019-01-10T11:27:27.257Z,98608.34
2019-01-10T11:29:59.292Z,98606.13
2019-01-10T11:32:31.265Z,98606.42
2019-01-10T11:35:03.626Z,98601.45
2019-01-10T11:37:35.611Z,98598.59
2019-01-10T11:40:09.892Z,98602.17
2019-01-10T11:42:41.939Z,98604.03
2019-01-10T11:45:15.761Z,98609.62
2019-01-10T11:47:47.743Z,98605.67
2019-01-10T11:50:19.739Z,98611.09
2019-01-10T11:52:51.777Z,98608.69
2019-01-10T11:55:23.787Z,98608.39
2019-01-10T11:57:55.810Z,98609.82
2019-01-10T12:00:29.775Z,98609.52
2019-01-10T12:03:03.764Z,98611.30
2019-01-10T12:05:47.294Z,98605.07
2019-01-10T12:08:12.019Z,98604.02
2019-01-10T12:10:44.032Z,98612.18
2019-01-10T12:13:16.011Z,98608.17
2019-01-10T12:15:48.019Z,98605.05
2019-01-10T12:18:20.008Z,98609.34
2019-01-10T12:20:52.004Z,98603.99
2019-01-10T12:23:24.029Z,98603.39
2019-01-10T12:25:56.025Z,98600.36
2019-01-10T12:28:28.028Z,98600.11
2019-01-10T12:31:00.047Z,98600.36
2019-01-10T12:33:32.104Z,98604.35
2019-01-10T12:36:04.130Z,98608.16
2019-01-10T12:38:36.097Z,98605.03
2019-01-10T12:41:08.096Z,98597.85
2019-01-10T12:43:40.085Z,98606.27
2019-01-10T12:46:12.088Z,98600.27
2019-01-10T12:48:44.118Z,98603.16
2019-01-10T12:51:16.094Z,98595.59
2019-01-10T12:53:48.112Z,98599.96
2019-01-10T12:56:20.101Z,98597.85
2019-01-10T12:58:52.108Z,98603.54
2019-01-10T13:01:24.109Z,98600.27
2019-01-10T13:03:56.121Z,98600.36
2019-01-10T13:06:28.109Z,98601.16
2019-01-10T13:09:00.140Z,98603.45
2019-01-10T13:11:32.129Z,98604.13
2019-01-10T13:14:05.388Z,98603.16
2019-01-10T13:16:46.515Z,98605.82
2019-01-10T13:19:11.529Z,98602.69
2019-01-10T13:21:43.521Z,98604.84
2019-01-10T13:24:15.553Z,98603.34
2019-01-10T13:26:47.557Z,98612.78
2019-01-10T13:29:19.559Z,98613.79
2019-01-10T13:31:51.558Z,98610.41
2019-01-10T13:34:23.618Z,98613.48
2019-01-10T13:36:55.600Z,98619.27
2019-01-10T13:39:27.626Z,98615.66
2019-01-10T13:41:59.622Z,98609.20
2019-01-10T13:44:31.660Z,98615.01
2019-01-10T13:47:03.911Z,98620.87
2019-01-10T13:49:35.929Z,98620.45
2019-01-10T13:52:07.920Z,98620.00
2019-01-10T13:54:39.913Z,98618.70
2019-01-10T13:57:11.892Z,98625.45
2019-01-10T13:59:43.959Z,98628.86
2019-01-10T14:02:15.976Z,98626.61
2019-01-10T14:04:47.981Z,98626.77
2019-01-10T14:07:20.013Z,98630.47
2019-01-10T14:09:52.027Z,98634.47
2019-01-10T14:12:24.043Z,98641.39
2019-01-10T14:14:56.036Z,98637.61
2019-01-10T14:17:28.067Z,98642.93
2019-01-10T14:20:00.175Z,98639.77
2019-01-10T14:22:32.174Z,98641.27
2019-01-10T14:25:04.491Z,98645.63
2019-01-10T14:27:36.525Z,98643.82
2019-01-10T14:30:15.289Z,98649.48
2019-01-10T14:32:47.371Z,98647.67
2019-01-10T14:35:19.574Z,98646.86
2019-01-10T14:37:51.574Z,98658.92
2019-01-10T14:40:23.565Z,98653.37
2019-01-10T14:42:55.690Z,98660.25
2019-01-10T14:45:27.662Z,98660.63
2019-01-10T14:48:01.935Z,98666.77
2019-01-10T14:50:33.613Z,98668.94
2019-01-10T14:53:05.813Z,98673.61
2019-01-10T14:55:37.795Z,98674.44
2019-01-10T14:58:09.813Z,98676.14
2019-01-10T15:00:41.838Z,98675.77
2019-01-10T15:03:13.893Z,98679.55
2019-01-10T15:05:45.880Z,98677.91
2019-01-10T15:08:17.922Z,98680.49
2019-01-10T15:10:49.907Z,98688.95
2019-01-10T15:13:21.923Z,98687.89
2019-01-10T15:15:53.935Z,98692.22
2019-01-10T15:18:25.966Z,98689.73
2019-01-10T15:20:57.956Z,98694.26
2019-01-10T15:23:29.997Z,98694.01
2019-01-10T15:26:01.959Z,98698.30
2019-01-10T15:28:33.982Z,98698.30
2019-01-10T15:31:06.028Z,98696.53
2019-01-10T15:33:38.052Z,98704.98
2019-01-10T15:36:10.043Z,98711.87
2019-01-10T15:38:42.058Z,98709.59
2019-01-10T15:41:14.097Z,98715.22
2019-01-10T15:43:46.234Z,98708.40
2019-01-10T15:46:18.280Z,98714.27
2019-01-10T15:48:50.288Z,98716.28
2019-01-10T15:51:25.322Z,98717.42
2019-01-10T15:53:57.338Z,98719.94
2019-01-10T15:56:29.364Z,98719.52
2019-01-10T15:59:01.373Z,98721.32
2019-01-10T16:01:33.362Z,98720.00
2019-01-10T16:04:07.441Z,98715.84
2019-01-10T16:06:39.335Z,98717.28
2019-01-10T16:09:11.352Z,98722.78
2019-01-10T16:11:43.428Z,98725.47
2019-01-10T16:14:15.420Z,98730.14
2019-01-10T16:16:47.444Z,98731.20
2019-01-10T16:19:19.432Z,98736.77
2019-01-10T16:21:51.479Z,98733.18
2019-01-10T16:24:23.519Z,98734.88
2019-01-10T16:26:55.568Z,98739.03
2019-01-10T16:29:27.579Z,98737.08
2019-01-10T16:31:59.649Z,98738.34
2019-01-10T16:34:31.676Z,98738.22
2019-01-10T16:37:03.713Z,98740.91
2019-01-10T16:39:35.740Z,98745.72
2019-01-10T16:42:07.772Z,98745.41
2019-01-10T16:44:39.784Z,98749.30
2019-01-10T16:47:11.785Z,98749.13
2019-01-10T16:49:43.873Z,98757.50
2019-01-10T16:52:15.973Z,98755.12
2019-01-10T16:54:47.996Z,98755.67
2019-01-10T16:57:20.040Z,98760.85
2019-01-10T16:59:52.084Z,98759.97
2019-01-10T17:02:24.126Z,98756.81
2019-01-10T17:04:56.149Z,98769.22
2019-01-10T17:07:28.170Z,98760.08
2019-01-10T17:10:00.247Z,98767.73
2019-01-10T17:12:32.992Z,98768.47
2019-01-10T17:15:05.525Z,98765.63
2019-01-10T17:17:37.881Z,98765.44
2019-01-10T17:20:11.929Z,98770.10
2019-01-10T17:22:44.035Z,98774.03
2019-01-10T17:25:16.720Z,98769.36
2019-01-10T17:27:48.805Z,98774.26
2019-01-10T17:30:22.948Z,98779.64
2019-01-10T17:32:55.059Z,98778.55
2019-01-10T17:35:29.443Z,98781.52
2019-01-10T17:38:02.007Z,98779.80
2019-01-10T17:40:34.071Z,98786.79
2019-01-10T17:43:06.110Z,98788.05
2019-01-10T17:45:38.387Z,98790.77
2019-01-10T17:48:10.850Z,98791.33
2019-01-10T17:50:42.918Z,98790.25
2019-01-10T17:53:15.008Z,98795.95
2019-01-10T17:55:47.061Z,98796.20
2019-01-10T17:58:19.053Z,98801.09
2019-01-10T18:00:51.182Z,98808.46
2019-01-10T18:03:23.207Z,98808.90
2019-01-10T18:05:55.269Z,98808.20
2019-01-10T18:08:27.331Z,98812.79
2019-01-10T18:10:59.382Z,98814.42
2019-01-10T18:13:31.452Z,98820.58
2019-01-10T18:16:03.496Z,98821.09
2019-01-10T18:18:35.631Z,98823.94
2019-01-10T18:21:07.682Z,98825.39
2019-01-10T18:23:39.758Z,98821.05
2019-01-10T18:26:11.831Z,98829.03
2019-01-10T18:28:43.872Z,98826.23
2019-01-10T18:31:15.960Z,98832.48
2019-01-10T18:33:48.093Z,98834.31
2019-01-10T18:36:20.208Z,98838.46
2019-01-10T18:38:52.334Z,98837.28
2019-01-10T18:41:24.323Z,98829.92
2019-01-10T18:43:56.406Z,98840.00
2019-01-10T18:46:28.465Z,98836.73
2019-01-10T18:49:00.644Z,98833.09
2019-01-10T18:51:32.668Z,98830.06
2019-01-10T18:54:04.783Z,98833.47
2019-01-10T18:56:36.999Z,98835.37
2019-01-10T18:59:09.126Z,98831.78
2019-01-10T19:01:41.221Z,98836.08
2019-01-10T19:04:13.304Z,98840.55
2019-01-10T19:06:45.397Z,98841.44
2019-01-10T19:09:17.504Z,98839.62
2019-01-10T19:11:49.648Z,98839.80
2019-01-10T19:14:21.723Z,98844.66
2019-01-10T19:16:53.794Z,98841.77
2019-01-10T19:19:25.890Z,98843.72
2019-01-10T19:21:57.962Z,98845.27
2019-01-10T19:24:31.493Z,98846.42
2019-01-10T19:27:03.628Z,98844.84
2019-01-10T19:29:35.765Z,98848.81
2019-01-10T19:32:07.838Z,98850.44
2019-01-10T19:34:40.018Z,98850.30
2019-01-10T19:37:12.130Z,98847.97
2019-01-10T19:39:44.199Z,98848.58
2019-01-10T19:42:16.378Z,98852.73
2019-01-10T19:44:48.476Z,98850.73
2019-01-10T19:47:20.629Z,98853.25
2019-01-10T19:49:58.288Z,98852.88
2019-01-10T19:52:26.663Z,98854.50
2019-01-10T19:54:58.714Z,98855.25
2019-01-10T19:57:30.793Z,98851.84
2019-01-10T20:00:04.279Z,98855.85
2019-01-10T20:02:36.424Z,98851.00
2019-01-10T20:05:08.547Z,98853.56
2019-01-10T20:07:40.600Z,98856.78
2019-01-10T20:10:12.852Z,98859.64
2019-01-10T20:12:44.978Z,98861.12
2019-01-10T20:15:17.074Z,98869.23
2019-01-10T20:17:49.176Z,98874.27
2019-01-10T20:20:27.568Z,98871.98
2019-01-10T20:23:00.020Z,98868.39
2019-01-10T20:25:32.116Z,98870.20
2019-01-10T20:28:04.557Z,98868.25
2019-01-10T20:30:36.754Z,98876.17
2019-01-10T20:33:08.993Z,98876.61
2019-01-10T20:35:41.129Z,98878.43
2019-01-10T20:38:13.423Z,98869.28
2019-01-10T20:40:46.735Z,98879.87
2019-01-10T20:43:18.991Z,98879.13
2019-01-10T20:45:51.099Z,98882.72
2019-01-10T20:48:23.227Z,98880.02
2019-01-10T20:50:55.291Z,98882.02
2019-01-10T20:53:27.299Z,98881.88
2019-01-10T20:55:59.388Z,98881.47
2019-01-10T20:58:31.412Z,98887.09
2019-01-10T21:01:03.565Z,98888.20
2019-01-10T21:03:35.685Z,98891.08
2019-01-10T21:06:09.626Z,98890.87
2019-01-10T21:08:41.666Z,98890.31
2019-01-10T21:11:13.753Z,98891.79
2019-01-10T21:13:45.800Z,98893.05
2019-01-10T21:16:17.862Z,98893.60
2019-01-10T21:18:49.914Z,98899.59
2019-01-10T21:21:21.985Z,98902.30
2019-01-10T21:23:54.044Z,98911.28
2019-01-10T21:26:26.191Z,98904.96
2019-01-10T21:28:58.233Z,98903.55
2019-01-10T21:31:30.331Z,98902.81
2019-01-10T21:34:02.390Z,98902.14
2019-01-10T21:36:34.430Z,98907.57
2019-01-10T21:39:06.889Z,98908.95
2019-01-10T21:41:38.975Z,98907.69
2019-01-10T21:44:11.061Z,98913.31
2019-01-10T21:46:43.187Z,98911.50
2019-01-10T21:49:15.195Z,98909.88
2019-01-10T21:51:47.583Z,98910.09
2019-01-10T21:54:19.976Z,98909.34
2019-01-10T21:56:52.117Z,98904.84
2019-01-10T21:59:24.302Z,98907.36
2019-01-10T22:01:56.476Z,98906.77
2019-01-10T22:04:28.517Z,98907.88
2019-01-10T22:07:00.755Z,98910.02
2019-01-10T22:09:33.014Z,98906.77
2019-01-10T22:12:05.131Z,98910.36
2019-01-10T22:14:37.415Z,98910.33
2019-01-10T22:17:09.539Z,98910.00
2019-01-10T22:19:41.839Z,98911.41
2019-01-10T22:22:13.911Z,98920.95
2019-01-10T22:24:46.023Z,98915.73
2019-01-10T22:27:18.136Z,98912.17
2019-01-10T22:29:50.182Z,98907.91
2019-01-10T22:32:22.195Z,98912.73
2019-01-10T22:34:54.248Z,98907.35
2019-01-10T22:37:29.076Z,98905.05
2019-01-10T22:40:00.203Z,98903.98
2019-01-10T22:42:32.159Z,98899.12
2019-01-10T22:45:04.573Z,98893.76
2019-01-10T22:47:36.573Z,98895.91
2019-01-10T22:50:10.018Z,98903.14
2019-01-10T22:52:41.980Z,98902.77
2019-01-10T22:55:14.069Z,98900.97
2019-01-10T22:57:46.087Z,98898.64
2019-01-10T23:01:08.985Z,98892.47
2019-01-10T23:03:41.758Z,98898.05
2019-01-10T23:06:13.777Z,98893.05
2019-01-10T23:08:46.068Z,98897.34
2019-01-10T23:11:19.822Z,98900.23
2019-01-10T23:13:56.463Z,98895.78
2019-01-10T23:16:29.571Z,98899.89
2019-01-10T23:19:01.562Z,98888.05
2019-01-10T23:21:40.898Z,98891.09
2019-01-10T23:24:17.109Z,98896.33
2019-01-10T23:26:53.536Z,98896.87
2019-01-10T23:29:31.394Z,98896.02
2019-01-10T23:32:11.677Z,98892.82
2019-01-10T23:34:48.176Z,98898.71
2019-01-10T23:37:21.650Z,98899.47
2019-01-10T23:39:54.492Z,98897.84
2019-01-10T23:42:26.488Z,98896.59
2019-01-10T23:44:58.462Z,98891.03
2019-01-10T23:47:30.458Z,98887.45
2019-01-10T23:50:02.537Z,98880.82
2019-01-10T23:52:34.559Z,98887.81
2019-01-10T23:55:06.515Z,98899.23
2019-01-10T23:57:38.514Z,98897.06
